Siwa, Egypt
Current Conditions -  °F | °C
As of 1:00 PM on Sunday 23 Nov 2014 (Local Time) from HEMM Reporting Station
Broken Clouds Broken Clouds  
Wind Chill: 64°   Ceiling: 2200
Heat Index: 64°   Visibility: 5mi
Dew Point: 57°   Wind: 12mph
Humidity: 77%   Direction: 260°W
Pressure: 30.09"   Gusts: NA
Location:  29.2°N, 25.52°E
Report Text: HEMM 231100Z 26010KT 8000 SCT020 BKN022 18/14 Q1019 NOSIG
Loading
Personal Weather Stations






























Interactive Weather Map New forecast layout! Learn more

10-Day Weather Forecast

Advertisements
Track Severe Weather on mobile